createdAt,value
2018-12-11T00:01:16.937Z,91.80
2018-12-11T00:03:19.605Z,92.10
2018-12-11T00:05:22.211Z,92.60
2018-12-11T00:07:24.780Z,92.90
2018-12-11T00:09:27.389Z,93.20
2018-12-11T00:11:33.964Z,93.30
2018-12-11T00:13:34.557Z,93.00
2018-12-11T00:15:37.137Z,92.90
2018-12-11T00:17:39.694Z,93.20
2018-12-11T00:19:42.284Z,93.10
2018-12-11T00:21:44.830Z,92.80
2018-12-11T00:23:47.393Z,93.40
2018-12-11T00:25:49.997Z,93.60
2018-12-11T00:27:52.562Z,92.80
2018-12-11T00:29:55.191Z,93.00
2018-12-11T00:31:57.765Z,93.20
2018-12-11T00:34:00.342Z,92.60
2018-12-11T00:36:02.968Z,92.50
2018-12-11T00:38:05.526Z,92.50
2018-12-11T00:40:08.200Z,93.30
2018-12-11T00:42:10.766Z,92.90
2018-12-11T00:44:13.353Z,92.90
2018-12-11T00:46:15.936Z,93.40
2018-12-11T00:48:18.495Z,93.00
2018-12-11T00:50:21.185Z,93.00
2018-12-11T00:52:23.763Z,93.10
2018-12-11T00:54:26.341Z,93.40
2018-12-11T00:56:28.928Z,93.50
2018-12-11T00:58:31.734Z,93.40
2018-12-11T01:00:34.954Z,94.30
2018-12-11T01:02:37.554Z,93.40
2018-12-11T01:04:40.150Z,93.20
2018-12-11T01:06:43.403Z,93.40
2018-12-11T01:08:45.967Z,93.40
2018-12-11T01:10:48.609Z,93.30
2018-12-11T01:12:51.174Z,93.00
2018-12-11T01:14:53.765Z,92.90
2018-12-11T01:16:56.314Z,93.40
2018-12-11T01:18:58.882Z,92.90
2018-12-11T01:21:01.487Z,93.30
2018-12-11T01:23:04.043Z,93.10
2018-12-11T01:25:06.817Z,93.40
2018-12-11T01:27:09.373Z,93.30
2018-12-11T01:29:11.939Z,93.50
2018-12-11T01:31:14.531Z,93.80
2018-12-11T01:33:17.096Z,93.90
2018-12-11T01:35:19.703Z,93.90
2018-12-11T01:37:22.281Z,94.00
2018-12-11T01:39:24.853Z,94.10
2018-12-11T01:41:27.459Z,94.20
2018-12-11T01:43:30.113Z,94.20
2018-12-11T01:45:32.718Z,94.70
2018-12-11T01:47:35.288Z,94.80
2018-12-11T01:49:37.862Z,94.80
2018-12-11T01:51:40.467Z,95.20
2018-12-11T01:53:43.043Z,95.60
2018-12-11T01:55:45.628Z,95.40
2018-12-11T01:57:48.177Z,95.50
2018-12-11T01:59:50.763Z,95.80
2018-12-11T02:01:53.420Z,95.80
2018-12-11T02:03:55.984Z,96.20
2018-12-11T02:05:58.583Z,96.20
2018-12-11T02:08:01.137Z,96.30
2018-12-11T02:10:04.196Z,96.30
2018-12-11T02:12:06.788Z,96.30
2018-12-11T02:14:09.344Z,96.40
2018-12-11T02:16:11.946Z,96.40
2018-12-11T02:18:14.518Z,96.20
2018-12-11T02:20:17.119Z,96.30
2018-12-11T02:22:19.694Z,95.90
2018-12-11T02:24:22.265Z,95.60
2018-12-11T02:26:24.953Z,95.70
2018-12-11T02:28:27.517Z,96.20
2018-12-11T02:30:30.116Z,96.30
2018-12-11T02:32:32.679Z,96.40
2018-12-11T02:34:35.250Z,96.40
2018-12-11T02:36:37.852Z,96.50
2018-12-11T02:38:40.503Z,96.40
2018-12-11T02:40:43.113Z,95.80
2018-12-11T02:42:45.676Z,96.00
2018-12-11T02:44:48.247Z,96.10
2018-12-11T02:46:50.859Z,96.40
2018-12-11T02:48:53.440Z,96.00
2018-12-11T02:50:56.009Z,95.80
2018-12-11T02:52:58.587Z,95.90
2018-12-11T02:55:01.159Z,96.30
2018-12-11T02:57:03.765Z,96.30
2018-12-11T02:59:06.375Z,96.40
2018-12-11T03:01:08.949Z,96.20
2018-12-11T03:03:11.564Z,96.40
2018-12-11T03:05:14.139Z,96.50
2018-12-11T03:07:16.736Z,95.50
2018-12-11T03:09:19.307Z,95.60
2018-12-11T03:11:21.857Z,94.90
2018-12-11T03:13:24.463Z,94.70
2018-12-11T03:15:27.038Z,94.30
2018-12-11T03:17:29.690Z,93.60
2018-12-11T03:19:32.271Z,93.70
2018-12-11T03:21:34.886Z,93.80
2018-12-11T03:23:37.456Z,94.10
2018-12-11T03:25:40.021Z,93.90
2018-12-11T03:27:43.162Z,93.70
2018-12-11T03:29:45.719Z,93.80
2018-12-11T03:31:48.481Z,93.80
2018-12-11T03:33:51.235Z,94.30
2018-12-11T03:35:53.801Z,94.00
2018-12-11T03:37:56.521Z,94.20
2018-12-11T03:39:59.086Z,94.20
2018-12-11T03:42:01.819Z,94.50
2018-12-11T03:44:05.815Z,94.60
2018-12-11T03:46:08.386Z,94.60
2018-12-11T03:48:10.984Z,94.70
2018-12-11T03:50:13.555Z,94.60
2018-12-11T03:52:21.436Z,95.00
2018-12-11T03:54:20.845Z,95.30
2018-12-11T03:56:23.511Z,95.10
2018-12-11T03:58:26.105Z,94.90
2018-12-11T04:00:28.662Z,94.50
2018-12-11T04:02:32.459Z,94.30
2018-12-11T04:04:35.057Z,94.20
2018-12-11T04:06:37.627Z,94.40
2018-12-11T04:08:40.215Z,94.30
2018-12-11T04:10:42.796Z,94.30
2018-12-11T04:12:45.402Z,94.60
2018-12-11T04:14:48.138Z,94.70
2018-12-11T04:16:50.709Z,94.90
2018-12-11T04:18:53.313Z,95.10
2018-12-11T04:20:55.885Z,95.20
2018-12-11T04:22:58.481Z,95.20
2018-12-11T04:25:03.039Z,95.20
2018-12-11T04:27:05.610Z,95.20
2018-12-11T04:29:08.249Z,94.90
2018-12-11T04:31:10.806Z,94.80
2018-12-11T04:33:13.402Z,94.70
2018-12-11T04:35:16.031Z,94.40
2018-12-11T04:37:18.603Z,94.50
2018-12-11T04:39:22.140Z,94.40
2018-12-11T04:41:24.743Z,94.20
2018-12-11T04:43:27.347Z,94.10
2018-12-11T04:45:30.181Z,94.00
2018-12-11T04:47:32.773Z,93.80
2018-12-11T04:49:35.378Z,94.20
2018-12-11T04:51:38.020Z,94.00
2018-12-11T04:53:40.687Z,94.30
2018-12-11T04:55:43.259Z,94.60
2018-12-11T04:57:46.064Z,95.00
2018-12-11T04:59:48.655Z,95.20
2018-12-11T05:01:51.232Z,95.10
2018-12-11T05:03:53.911Z,95.30
2018-12-11T05:05:56.500Z,95.10
2018-12-11T05:07:59.115Z,94.60
2018-12-11T05:10:01.727Z,94.80
2018-12-11T05:12:04.383Z,95.00
2018-12-11T05:14:06.979Z,95.10
2018-12-11T05:16:09.556Z,95.20
2018-12-11T05:18:12.133Z,95.40
2018-12-11T05:20:14.758Z,96.10
2018-12-11T05:22:17.315Z,96.10
2018-12-11T05:24:19.899Z,96.60
2018-12-11T05:26:22.455Z,96.20
2018-12-11T05:28:25.005Z,96.30
2018-12-11T05:30:27.598Z,96.30
2018-12-11T05:32:30.225Z,96.30
2018-12-11T05:34:32.813Z,96.40
2018-12-11T05:36:35.403Z,96.30
2018-12-11T05:38:37.975Z,96.30
2018-12-11T05:40:40.570Z,96.20
2018-12-11T05:42:43.127Z,96.20
2018-12-11T05:44:45.754Z,95.70
2018-12-11T05:46:48.399Z,95.30
2018-12-11T05:48:50.952Z,95.10
2018-12-11T05:50:53.533Z,95.10
2018-12-11T05:52:56.100Z,95.00
2018-12-11T05:54:58.746Z,95.20
2018-12-11T05:57:02.090Z,95.50
2018-12-11T05:59:05.295Z,95.80
2018-12-11T06:01:07.890Z,96.10
2018-12-11T06:03:10.549Z,95.70
2018-12-11T06:05:13.268Z,96.00
2018-12-11T06:07:15.828Z,96.20
2018-12-11T06:09:18.425Z,96.30
2018-12-11T06:11:21.012Z,95.90
2018-12-11T06:13:23.591Z,96.30
2018-12-11T06:15:26.210Z,96.30
2018-12-11T06:17:28.783Z,96.50
2018-12-11T06:19:31.361Z,96.30
2018-12-11T06:21:33.953Z,96.40
2018-12-11T06:23:36.533Z,96.50
2018-12-11T06:25:39.125Z,96.30
2018-12-11T06:27:41.679Z,96.40
2018-12-11T06:29:44.225Z,96.30
2018-12-11T06:31:46.859Z,96.80
2018-12-11T06:33:49.483Z,96.50
2018-12-11T06:35:52.180Z,96.80
2018-12-11T06:37:54.760Z,96.90
2018-12-11T06:39:57.412Z,97.50
2018-12-11T06:42:00.035Z,97.20
2018-12-11T06:44:02.631Z,96.60
2018-12-11T06:46:05.371Z,96.80
2018-12-11T06:48:07.974Z,96.80
2018-12-11T06:50:10.626Z,97.00
2018-12-11T06:52:13.280Z,97.10
2018-12-11T06:54:15.939Z,97.50
2018-12-11T06:56:18.651Z,97.60
2018-12-11T06:58:21.284Z,97.80
2018-12-11T07:00:24.008Z,98.00
2018-12-11T07:02:26.711Z,98.20
2018-12-11T07:04:29.394Z,98.20
2018-12-11T07:06:32.174Z,98.30
2018-12-11T07:08:35.694Z,98.40
2018-12-11T07:10:38.469Z,98.70
2018-12-11T07:12:41.328Z,98.90
2018-12-11T07:14:44.131Z,98.80
2018-12-11T07:16:47.292Z,98.40
2018-12-11T07:18:50.169Z,98.40
2018-12-11T07:20:53.101Z,98.40
2018-12-11T07:22:55.921Z,97.90
2018-12-11T07:24:58.635Z,98.30
2018-12-11T07:27:01.373Z,98.10
2018-12-11T07:29:04.086Z,98.10
2018-12-11T07:31:06.873Z,98.20
2018-12-11T07:33:09.616Z,98.20
2018-12-11T07:35:12.322Z,98.30
2018-12-11T07:37:15.095Z,98.40
2018-12-11T07:39:17.835Z,98.50
2018-12-11T07:41:20.709Z,98.70
2018-12-11T07:43:23.743Z,98.40
2018-12-11T07:45:26.660Z,98.80
2018-12-11T07:47:29.499Z,99.20
2018-12-11T07:49:32.236Z,99.20
2018-12-11T07:51:35.030Z,99.30
2018-12-11T07:53:37.839Z,99.80
2018-12-11T07:55:40.747Z,99.30
2018-12-11T07:57:43.526Z,99.10
2018-12-11T07:59:46.226Z,99.20
2018-12-11T08:01:48.998Z,99.00
2018-12-11T08:03:51.660Z,99.20
2018-12-11T08:05:54.340Z,99.10
2018-12-11T08:07:57.129Z,98.90
2018-12-11T08:09:59.820Z,98.90
2018-12-11T08:12:08.166Z,98.90
2018-12-11T08:14:07.202Z,98.40
2018-12-11T08:16:09.773Z,98.30
2018-12-11T08:18:12.372Z,99.00
2018-12-11T08:20:14.953Z,99.20
2018-12-11T08:22:17.551Z,99.10
2018-12-11T08:24:20.113Z,98.00
2018-12-11T08:26:22.948Z,97.00
2018-12-11T08:28:25.687Z,96.00
2018-12-11T08:30:28.261Z,94.80
2018-12-11T08:32:30.879Z,86.50
2018-12-11T08:34:33.526Z,85.40
2018-12-11T08:36:36.127Z,78.20
2018-12-11T08:38:38.681Z,76.80
2018-12-11T08:40:41.254Z,75.00
2018-12-11T08:42:43.965Z,74.80
2018-12-11T08:44:51.107Z,75.90
2018-12-11T08:46:51.149Z,77.50
2018-12-11T08:48:53.711Z,79.80
2018-12-11T08:50:56.282Z,82.40
2018-12-11T08:52:58.873Z,84.50
2018-12-11T08:55:01.571Z,85.40
2018-12-11T08:57:04.252Z,86.20
2018-12-11T08:59:07.013Z,90.30
2018-12-11T09:01:09.619Z,90.10
2018-12-11T09:03:12.231Z,90.80
2018-12-11T09:05:14.796Z,91.80
2018-12-11T09:07:17.385Z,92.00
2018-12-11T09:09:19.943Z,92.10
2018-12-11T09:11:22.516Z,92.10
2018-12-11T09:13:25.135Z,92.80
2018-12-11T09:15:27.710Z,93.00
2018-12-11T09:17:30.405Z,93.50
2018-12-11T09:19:32.968Z,94.10
2018-12-11T09:21:35.536Z,94.10
2018-12-11T09:23:38.126Z,94.40
2018-12-11T09:25:40.705Z,94.30
2018-12-11T09:27:43.297Z,94.00
2018-12-11T09:29:46.006Z,94.30
2018-12-11T09:31:48.576Z,94.40
2018-12-11T09:33:51.182Z,94.20
2018-12-11T09:35:53.761Z,93.40
2018-12-11T09:37:56.353Z,93.70
2018-12-11T09:39:58.933Z,93.60
2018-12-11T09:42:06.933Z,93.80
2018-12-11T09:44:06.244Z,93.60
2018-12-11T09:46:08.807Z,93.60
2018-12-11T09:48:11.388Z,93.70
2018-12-11T09:50:13.947Z,93.40
2018-12-11T09:52:16.564Z,93.80
2018-12-11T09:54:19.141Z,93.30
2018-12-11T09:56:21.801Z,92.90
2018-12-11T09:58:24.526Z,93.50
2018-12-11T10:00:27.526Z,92.40
2018-12-11T10:02:30.289Z,79.30
2018-12-11T10:04:32.845Z,59.20
2018-12-11T10:06:35.429Z,48.20
2018-12-11T10:08:38.035Z,40.50
2018-12-11T10:10:40.618Z,40.10
2018-12-11T10:12:43.207Z,33.10
2018-12-11T10:14:45.775Z,25.80
2018-12-11T10:16:48.343Z,16.70
2018-12-11T10:18:50.945Z,15.30
2018-12-11T10:20:53.519Z,14.50
2018-12-11T10:22:56.234Z,17.70
2018-12-11T10:24:58.793Z,21.20
2018-12-11T10:27:01.383Z,25.60
2018-12-11T10:29:04.097Z,27.00
2018-12-11T10:31:06.649Z,22.90
2018-12-11T10:33:09.233Z,20.80
2018-12-11T10:35:11.808Z,17.20
2018-12-11T10:37:14.368Z,15.00
2018-12-11T10:39:16.975Z,14.00
2018-12-11T10:41:19.626Z,9.10
2018-12-11T10:43:22.240Z,7.00
2018-12-11T10:45:24.791Z,7.10
2018-12-11T10:47:27.359Z,3.60
2018-12-11T10:49:29.942Z,1.00
2018-12-11T10:51:32.510Z,1.50
2018-12-11T10:53:35.156Z,1.00
2018-12-11T10:55:37.710Z,1.00
2018-12-11T10:57:40.308Z,1.00
2018-12-11T10:59:42.876Z,1.00
2018-12-11T11:01:46.249Z,1.00
2018-12-11T11:03:48.846Z,1.00
2018-12-11T11:05:51.403Z,1.00
2018-12-11T11:07:54.097Z,1.00
2018-12-11T11:09:56.660Z,1.00
2018-12-11T11:11:59.245Z,1.00
2018-12-11T11:14:01.898Z,1.00
2018-12-11T11:16:04.525Z,1.00
2018-12-11T11:18:07.109Z,1.00
2018-12-11T11:20:09.769Z,1.00
2018-12-11T11:22:12.319Z,1.00
2018-12-11T11:24:14.924Z,1.00
2018-12-11T11:26:17.485Z,1.00
2018-12-11T11:28:20.076Z,1.00
2018-12-11T11:30:22.644Z,1.00
2018-12-11T11:32:25.215Z,1.00
2018-12-11T11:34:31.786Z,1.00
2018-12-11T11:36:34.358Z,1.00
2018-12-11T11:38:36.947Z,1.00
2018-12-11T11:40:39.525Z,1.00
2018-12-11T11:42:42.158Z,1.00
2018-12-11T11:44:45.329Z,1.00
2018-12-11T11:46:47.896Z,1.00
2018-12-11T11:48:50.492Z,1.00
2018-12-11T11:50:53.045Z,1.00
2018-12-11T11:52:55.675Z,1.00
2018-12-11T11:54:58.275Z,1.00
2018-12-11T11:57:00.828Z,1.00
2018-12-11T11:59:03.530Z,1.30
2018-12-11T12:01:06.108Z,3.70
2018-12-11T12:03:08.722Z,6.40
2018-12-11T12:05:11.319Z,6.40
2018-12-11T12:07:13.983Z,5.20
2018-12-11T12:09:16.599Z,4.60
2018-12-11T12:11:19.160Z,4.10
2018-12-11T12:13:21.722Z,3.60
2018-12-11T12:15:24.327Z,2.30
2018-12-11T12:17:26.899Z,1.20
2018-12-11T12:19:30.103Z,1.10
2018-12-11T12:21:32.659Z,3.20
2018-12-11T12:23:35.239Z,1.70
2018-12-11T12:25:37.832Z,2.60
2018-12-11T12:27:40.402Z,2.10
2018-12-11T12:29:42.980Z,5.60
2018-12-11T12:31:45.532Z,5.20
2018-12-11T12:33:48.330Z,6.00
2018-12-11T12:35:50.955Z,5.20
2018-12-11T12:37:53.533Z,7.90
2018-12-11T12:39:56.182Z,10.90
2018-12-11T12:41:58.793Z,11.90
2018-12-11T12:44:01.454Z,12.70
2018-12-11T12:46:04.025Z,12.40
2018-12-11T12:48:06.578Z,15.50
2018-12-11T12:50:09.180Z,15.20
2018-12-11T12:52:11.843Z,16.90
2018-12-11T12:54:14.663Z,19.80
2018-12-11T12:56:17.347Z,21.40
2018-12-11T12:58:19.964Z,23.30
2018-12-11T13:00:22.564Z,23.40
2018-12-11T13:02:25.188Z,23.10
2018-12-11T13:04:27.833Z,22.60
2018-12-11T13:06:30.603Z,24.20
2018-12-11T13:08:33.703Z,25.20
2018-12-11T13:10:36.318Z,25.70
2018-12-11T13:12:39.073Z,28.60
2018-12-11T13:14:41.846Z,28.40
2018-12-11T13:16:44.436Z,30.00
2018-12-11T13:18:47.008Z,31.60
2018-12-11T13:20:49.590Z,34.70
2018-12-11T13:22:52.165Z,37.20
2018-12-11T13:24:54.759Z,40.30
2018-12-11T13:26:57.369Z,42.70
2018-12-11T13:28:59.935Z,44.80
2018-12-11T13:31:02.512Z,44.40
2018-12-11T13:33:05.078Z,43.70
2018-12-11T13:35:07.760Z,46.30
2018-12-11T13:37:10.334Z,46.70
2018-12-11T13:39:13.114Z,47.50
2018-12-11T13:41:15.737Z,48.00
2018-12-11T13:43:18.467Z,49.10
2018-12-11T13:45:21.116Z,48.30
2018-12-11T13:47:23.687Z,48.70
2018-12-11T13:49:26.261Z,48.90
2018-12-11T13:51:28.859Z,47.90
2018-12-11T13:53:31.441Z,48.90
2018-12-11T13:55:35.075Z,50.30
2018-12-11T13:57:37.682Z,52.80
2018-12-11T13:59:41.832Z,51.40
2018-12-11T14:01:44.459Z,51.90
2018-12-11T14:03:47.170Z,51.30
2018-12-11T14:05:49.803Z,52.20
2018-12-11T14:07:52.379Z,52.40
2018-12-11T14:09:54.989Z,53.10
2018-12-11T14:11:57.547Z,53.70
2018-12-11T14:14:00.134Z,54.00
2018-12-11T14:16:02.979Z,56.10
2018-12-11T14:18:05.686Z,53.80
2018-12-11T14:20:08.283Z,54.00
2018-12-11T14:22:10.849Z,55.50
2018-12-11T14:24:13.433Z,55.40
2018-12-11T14:26:16.361Z,56.00
2018-12-11T14:28:18.985Z,56.60
2018-12-11T14:30:21.741Z,56.50
2018-12-11T14:32:24.295Z,55.20
2018-12-11T14:34:27.675Z,55.40
2018-12-11T14:36:30.397Z,54.30
2018-12-11T14:38:33.285Z,55.00
2018-12-11T14:40:36.391Z,56.40
2018-12-11T14:42:39.054Z,56.60
2018-12-11T14:44:41.983Z,56.20
2018-12-11T14:46:44.727Z,56.80
2018-12-11T14:48:47.371Z,57.40
2018-12-11T14:50:49.978Z,57.60
2018-12-11T14:52:52.646Z,58.20
2018-12-11T14:57:14.487Z,60.50
2018-12-11T14:59:17.113Z,59.70
2018-12-11T15:01:19.771Z,60.40
2018-12-11T15:03:22.972Z,61.80
2018-12-11T15:05:25.602Z,61.70
2018-12-11T15:07:28.276Z,62.20
2018-12-11T15:09:40.348Z,64.00
2018-12-11T15:11:42.962Z,66.30
2018-12-11T15:13:45.612Z,67.00
2018-12-11T15:15:48.904Z,68.70
2018-12-11T15:17:51.486Z,68.60
2018-12-11T15:19:54.066Z,69.00
2018-12-11T15:21:56.661Z,69.90
2018-12-11T15:23:59.264Z,72.40
2018-12-11T15:26:01.875Z,73.10
2018-12-11T15:28:04.486Z,73.70
2018-12-11T15:30:07.061Z,75.10
2018-12-11T15:32:09.683Z,75.50
2018-12-11T15:34:12.539Z,77.90
2018-12-11T15:36:15.280Z,77.10
2018-12-11T15:38:17.848Z,77.20
2018-12-11T15:40:20.427Z,78.40
2018-12-11T15:42:23.074Z,77.70
2018-12-11T15:44:25.642Z,77.70
2018-12-11T15:46:28.599Z,78.30
2018-12-11T15:48:31.233Z,78.20
2018-12-11T15:50:33.828Z,80.20
2018-12-11T15:52:36.474Z,83.20
2018-12-11T15:54:39.048Z,81.80
2018-12-11T15:56:42.039Z,82.00
2018-12-11T15:58:44.628Z,81.10
2018-12-11T16:00:47.209Z,82.00
2018-12-11T16:02:49.814Z,83.80
2018-12-11T16:04:52.383Z,87.20
2018-12-11T16:06:54.982Z,87.90
2018-12-11T16:08:57.621Z,88.10
2018-12-11T16:11:00.397Z,87.30
2018-12-11T16:13:03.054Z,87.40
2018-12-11T16:15:05.863Z,86.60
2018-12-11T16:17:08.465Z,87.10
2018-12-11T16:19:11.045Z,86.10
2018-12-11T16:21:13.643Z,87.10
2018-12-11T16:23:16.217Z,86.90
2018-12-11T16:25:18.798Z,88.10
2018-12-11T16:27:21.874Z,89.30
2018-12-11T16:29:24.451Z,90.80
2018-12-11T16:31:27.200Z,92.00
2018-12-11T16:33:29.804Z,91.30
2018-12-11T16:35:32.376Z,90.60
2018-12-11T16:37:35.368Z,90.20
2018-12-11T16:39:38.016Z,90.60
2018-12-11T16:41:40.621Z,90.40
2018-12-11T16:43:43.876Z,90.90
2018-12-11T16:45:46.449Z,91.20
2018-12-11T16:47:49.047Z,91.50
2018-12-11T16:49:51.626Z,91.30
2018-12-11T16:51:54.230Z,91.00
2018-12-11T16:53:56.829Z,90.40
2018-12-11T16:55:59.409Z,90.70
2018-12-11T16:58:02.028Z,90.30
2018-12-11T17:00:07.091Z,90.60
2018-12-11T17:02:09.710Z,90.70
2018-12-11T17:04:13.161Z,91.10
2018-12-11T17:06:15.777Z,91.10
2018-12-11T17:08:18.390Z,90.80
2018-12-11T17:10:22.943Z,90.90
2018-12-11T17:12:27.106Z,91.30
2018-12-11T17:14:29.948Z,91.40
2018-12-11T17:16:32.641Z,91.30
2018-12-11T17:18:37.790Z,91.50
2018-12-11T17:20:44.690Z,91.50
2018-12-11T17:22:48.668Z,91.30
2018-12-11T17:24:51.375Z,91.70
2018-12-11T17:26:54.023Z,91.50
2018-12-11T17:28:56.627Z,91.40
2018-12-11T17:30:59.227Z,91.60
2018-12-11T17:33:01.940Z,91.60
2018-12-11T17:35:06.292Z,92.10
2018-12-11T17:37:09.241Z,91.80
2018-12-11T17:39:12.554Z,91.40
2018-12-11T17:41:15.436Z,91.20
2018-12-11T17:43:19.874Z,91.10
2018-12-11T17:45:22.666Z,91.70
2018-12-11T17:47:26.204Z,91.90
2018-12-11T17:49:29.468Z,92.10
2018-12-11T17:51:33.007Z,92.80
2018-12-11T17:53:36.825Z,93.60
2018-12-11T17:55:39.395Z,93.10
2018-12-11T17:57:42.351Z,92.90
2018-12-11T17:59:44.968Z,93.30
2018-12-11T18:01:49.174Z,93.60
2018-12-11T18:03:52.006Z,93.70
2018-12-11T18:05:54.570Z,94.60
2018-12-11T18:07:57.179Z,95.30
2018-12-11T18:09:59.744Z,95.20
2018-12-11T18:12:02.318Z,95.10
2018-12-11T18:14:04.950Z,95.10
2018-12-11T18:16:07.526Z,95.80
2018-12-11T18:18:10.182Z,96.40
2018-12-11T18:20:12.805Z,96.30
2018-12-11T18:22:15.373Z,96.30
2018-12-11T18:24:18.408Z,96.90
2018-12-11T18:26:21.270Z,96.70
2018-12-11T18:28:24.242Z,96.70
2018-12-11T18:30:27.205Z,97.00
2018-12-11T18:32:29.842Z,97.10
2018-12-11T18:34:35.412Z,97.70
2018-12-11T18:36:38.866Z,97.40
2018-12-11T18:38:41.594Z,97.70
2018-12-11T18:40:44.151Z,97.40
2018-12-11T18:42:46.721Z,97.00
2018-12-11T18:44:49.318Z,97.20
2018-12-11T18:46:51.915Z,97.30
2018-12-11T18:48:54.519Z,97.10
2018-12-11T18:50:57.095Z,97.10
2018-12-11T18:52:59.694Z,97.60
2018-12-11T18:55:04.820Z,97.30
2018-12-11T18:57:09.006Z,97.50
2018-12-11T18:59:13.376Z,97.90
2018-12-11T19:01:16.521Z,97.80
2018-12-11T19:03:19.372Z,97.80
2018-12-11T19:05:22.588Z,98.00
2018-12-11T19:07:26.345Z,97.70
2018-12-11T19:09:29.158Z,98.10
2018-12-11T19:11:33.160Z,98.60
2018-12-11T19:13:35.892Z,99.00
2018-12-11T19:15:38.866Z,99.10
2018-12-11T19:17:41.463Z,98.90
2018-12-11T19:19:44.548Z,99.10
2018-12-11T19:21:47.294Z,99.30
2018-12-11T19:23:51.166Z,99.40
2018-12-11T19:25:53.831Z,99.20
2018-12-11T19:27:56.789Z,99.20
2018-12-11T19:29:59.622Z,99.00
2018-12-11T19:32:02.375Z,99.20
2018-12-11T19:34:05.235Z,98.90
2018-12-11T19:36:07.857Z,99.00
2018-12-11T19:38:10.467Z,98.90
2018-12-11T19:40:13.299Z,99.10
2018-12-11T19:42:15.946Z,99.10
2018-12-11T19:44:18.667Z,99.30
2018-12-11T19:46:21.290Z,99.50
2018-12-11T19:48:23.924Z,99.60
2018-12-11T19:50:26.527Z,99.50
2018-12-11T19:52:29.093Z,99.50
2018-12-11T19:54:31.737Z,99.20
2018-12-11T19:56:34.306Z,99.50
2018-12-11T19:58:37.530Z,99.50
2018-12-11T20:00:40.456Z,99.70
2018-12-11T20:02:43.367Z,99.50
2018-12-11T20:04:46.731Z,99.60
2018-12-11T20:06:49.583Z,99.80
2018-12-11T20:08:52.421Z,99.80
2018-12-11T20:10:55.169Z,99.90
2018-12-11T20:12:57.926Z,99.60
2018-12-11T20:15:04.656Z,99.30
2018-12-11T20:17:05.302Z,99.50
2018-12-11T20:19:07.863Z,99.20
2018-12-11T20:21:10.564Z,99.30
2018-12-11T20:23:13.409Z,99.60
2018-12-11T20:25:16.083Z,99.60
2018-12-11T20:27:18.708Z,99.50
2018-12-11T20:29:21.346Z,99.50
2018-12-11T20:31:24.744Z,99.80
2018-12-11T20:33:27.350Z,99.90
2018-12-11T20:35:29.961Z,99.40
2018-12-11T20:37:32.604Z,99.90
2018-12-11T20:39:35.179Z,99.80
2018-12-11T20:41:37.790Z,99.80
2018-12-11T20:43:40.519Z,99.80
2018-12-11T20:45:43.197Z,99.90
2018-12-11T20:47:46.180Z,99.90
2018-12-11T20:49:48.878Z,99.90
2018-12-11T20:51:52.181Z,99.70
2018-12-11T20:53:55.409Z,99.50
2018-12-11T20:55:58.518Z,99.00
2018-12-11T20:58:01.142Z,99.10
2018-12-11T21:00:07.675Z,99.00
2018-12-11T21:02:10.250Z,99.40
2018-12-11T21:04:12.857Z,99.50
2018-12-11T21:06:15.466Z,99.50
2018-12-11T21:08:18.073Z,99.90
2018-12-11T21:10:20.676Z,99.80
2018-12-11T21:12:23.227Z,99.90
2018-12-11T21:14:25.814Z,99.90
2018-12-11T21:16:28.578Z,99.90
2018-12-11T21:18:31.539Z,99.90
2018-12-11T21:20:34.212Z,99.90
2018-12-11T21:22:37.840Z,99.80
2018-12-11T21:24:40.452Z,99.90
2018-12-11T21:26:43.258Z,99.90
2018-12-11T21:28:45.848Z,99.90
2018-12-11T21:30:48.465Z,99.90
2018-12-11T21:32:51.039Z,99.90
2018-12-11T21:34:53.613Z,99.90
2018-12-11T21:36:56.786Z,99.90
2018-12-11T21:38:59.402Z,99.90
2018-12-11T21:41:02.000Z,99.90
2018-12-11T21:43:04.686Z,99.90
2018-12-11T21:45:09.494Z,99.90
2018-12-11T21:47:12.095Z,99.90
2018-12-11T21:49:16.674Z,99.90
2018-12-11T21:51:20.087Z,99.90
2018-12-11T21:53:22.663Z,99.90
2018-12-11T21:55:25.297Z,99.90
2018-12-11T21:57:27.903Z,99.90
2018-12-11T21:59:30.497Z,99.90
2018-12-11T22:01:33.094Z,99.90
2018-12-11T22:03:35.875Z,99.90
2018-12-11T22:05:38.451Z,99.90
2018-12-11T22:07:41.047Z,99.90
2018-12-11T22:09:43.625Z,99.90
2018-12-11T22:11:46.221Z,99.90
2018-12-11T22:13:48.794Z,99.90
2018-12-11T22:15:51.369Z,99.90
2018-12-11T22:17:53.998Z,99.90
2018-12-11T22:19:56.594Z,99.90
2018-12-11T22:21:59.258Z,99.90
2018-12-11T22:24:01.821Z,99.90
2018-12-11T22:26:04.418Z,99.90
2018-12-11T22:28:07.019Z,99.90
2018-12-11T22:30:09.692Z,99.90
2018-12-11T22:32:12.347Z,99.90
2018-12-11T22:34:14.922Z,99.90
2018-12-11T22:36:18.629Z,99.90
2018-12-11T22:38:21.537Z,99.90
2018-12-11T22:40:24.126Z,99.90
2018-12-11T22:42:26.727Z,99.90
2018-12-11T22:44:29.743Z,99.90
2018-12-11T22:46:32.359Z,99.90
2018-12-11T22:48:35.415Z,99.90
2018-12-11T22:50:40.946Z,99.90
2018-12-11T22:52:43.577Z,99.90
2018-12-11T22:54:46.246Z,99.90
2018-12-11T22:56:48.867Z,99.90
2018-12-11T22:58:51.629Z,99.90
2018-12-11T23:00:54.193Z,99.90
2018-12-11T23:02:56.806Z,99.90
2018-12-11T23:04:59.619Z,99.90
2018-12-11T23:07:02.252Z,99.90
2018-12-11T23:09:07.284Z,99.90
2018-12-11T23:11:10.394Z,99.90
2018-12-11T23:13:13.810Z,99.90
2018-12-11T23:15:16.442Z,99.90
2018-12-11T23:17:19.452Z,99.90
2018-12-11T23:19:22.270Z,99.90
2018-12-11T23:21:24.827Z,99.90
2018-12-11T23:23:27.948Z,99.90
2018-12-11T23:25:31.080Z,99.90
2018-12-11T23:27:33.810Z,99.90
2018-12-11T23:29:36.886Z,99.90
2018-12-11T23:31:39.461Z,99.90
2018-12-11T23:33:42.061Z,99.90
2018-12-11T23:35:44.639Z,99.90
2018-12-11T23:37:47.577Z,99.90
2018-12-11T23:39:50.301Z,99.90
2018-12-11T23:41:55.505Z,99.90
2018-12-11T23:43:58.196Z,99.90
2018-12-11T23:46:00.967Z,99.90
2018-12-11T23:48:04.654Z,99.90
2018-12-11T23:50:07.610Z,99.90
2018-12-11T23:52:10.179Z,99.90
2018-12-11T23:54:13.787Z,99.90
2018-12-11T23:56:16.372Z,99.90
2018-12-11T23:58:20.099Z,99.90
